sensor_id;sensor_type;location;lat;lon;timestamp;P1;durP1;ratioP1;P2;durP2;ratioP2
21424;SDS011;10873;51.132;16.848;2022-11-14T00:16:17;20.88;;;17.27;;
21424;SDS011;10873;51.132;16.848;2022-11-14T00:18:43;20.27;;;16.70;;
21424;SDS011;10873;51.132;16.848;2022-11-14T00:21:09;20.02;;;16.20;;
21424;SDS011;10873;51.132;16.848;2022-11-14T00:23:35;20.80;;;16.17;;
21424;SDS011;10873;51.132;16.848;2022-11-14T00:26:01;22.42;;;16.77;;
21424;SDS011;10873;51.132;16.848;2022-11-14T00:28:27;18.70;;;15.48;;
21424;SDS011;10873;51.132;16.848;2022-11-14T00:30:53;20.90;;;16.10;;
21424;SDS011;10873;51.132;16.848;2022-11-14T00:33:21;19.85;;;15.68;;
21424;SDS011;10873;51.132;16.848;2022-11-14T00:35:50;19.23;;;15.20;;
21424;SDS011;10873;51.132;16.848;2022-11-14T00:38:17;20.55;;;15.75;;
21424;SDS011;10873;51.132;16.848;2022-11-14T00:40:42;20.50;;;16.40;;
21424;SDS011;10873;51.132;16.848;2022-11-14T00:43:09;19.83;;;15.90;;
21424;SDS011;10873;51.132;16.848;2022-11-14T00:45:35;21.20;;;16.08;;
21424;SDS011;10873;51.132;16.848;2022-11-14T00:48:01;19.42;;;15.18;;
21424;SDS011;10873;51.132;16.848;2022-11-14T00:50:28;18.80;;;15.52;;
21424;SDS011;10873;51.132;16.848;2022-11-14T00:52:54;21.00;;;16.38;;
21424;SDS011;10873;51.132;16.848;2022-11-14T00:55:20;18.02;;;14.82;;
21424;SDS011;10873;51.132;16.848;2022-11-14T00:57:46;18.38;;;15.20;;
21424;SDS011;10873;51.132;16.848;2022-11-14T01:00:13;18.83;;;15.43;;
21424;SDS011;10873;51.132;16.848;2022-11-14T01:02:39;19.05;;;15.38;;
21424;SDS011;10873;51.132;16.848;2022-11-14T01:05:05;17.42;;;14.85;;
21424;SDS011;10873;51.132;16.848;2022-11-14T01:07:33;20.13;;;15.77;;
21424;SDS011;10873;51.132;16.848;2022-11-14T01:09:59;20.70;;;16.17;;
21424;SDS011;10873;51.132;16.848;2022-11-14T01:12:25;19.52;;;15.45;;
21424;SDS011;10873;51.132;16.848;2022-11-14T01:14:51;18.30;;;14.95;;
21424;SDS011;10873;51.132;16.848;2022-11-14T01:17:17;19.15;;;14.93;;
21424;SDS011;10873;51.132;16.848;2022-11-14T01:19:43;17.38;;;14.40;;
21424;SDS011;10873;51.132;16.848;2022-11-14T01:22:09;17.45;;;14.70;;
21424;SDS011;10873;51.132;16.848;2022-11-14T01:24:36;18.60;;;14.65;;
21424;SDS011;10873;51.132;16.848;2022-11-14T01:27:02;17.90;;;14.85;;
21424;SDS011;10873;51.132;16.848;2022-11-14T01:29:28;18.10;;;14.48;;
21424;SDS011;10873;51.132;16.848;2022-11-14T01:31:54;17.65;;;14.60;;
21424;SDS011;10873;51.132;16.848;2022-11-14T01:34:21;19.02;;;14.27;;
21424;SDS011;10873;51.132;16.848;2022-11-14T01:36:47;17.63;;;14.18;;
21424;SDS011;10873;51.132;16.848;2022-11-14T01:39:14;18.75;;;14.55;;
21424;SDS011;10873;51.132;16.848;2022-11-14T01:41:41;17.35;;;13.82;;
21424;SDS011;10873;51.132;16.848;2022-11-14T01:44:11;17.35;;;14.05;;
21424;SDS011;10873;51.132;16.848;2022-11-14T01:46:39;17.30;;;14.30;;
21424;SDS011;10873;51.132;16.848;2022-11-14T01:49:10;17.85;;;14.35;;
21424;SDS011;10873;51.132;16.848;2022-11-14T01:51:43;18.23;;;13.88;;
21424;SDS011;10873;51.132;16.848;2022-11-14T01:54:14;16.48;;;13.63;;
21424;SDS011;10873;51.132;16.848;2022-11-14T01:56:46;16.80;;;13.77;;
21424;SDS011;10873;51.132;16.848;2022-11-14T01:59:18;16.10;;;13.63;;
21424;SDS011;10873;51.132;16.848;2022-11-14T02:01:47;16.02;;;13.55;;
21424;SDS011;10873;51.132;16.848;2022-11-14T02:04:16;16.42;;;13.50;;
21424;SDS011;10873;51.132;16.848;2022-11-14T02:06:45;17.73;;;13.93;;
21424;SDS011;10873;51.132;16.848;2022-11-14T02:09:12;16.83;;;13.98;;
21424;SDS011;10873;51.132;16.848;2022-11-14T02:15:21;18.67;;;14.40;;
21424;SDS011;10873;51.132;16.848;2022-11-14T02:17:47;15.30;;;12.65;;
21424;SDS011;10873;51.132;16.848;2022-11-14T02:20:15;15.85;;;12.93;;
21424;SDS011;10873;51.132;16.848;2022-11-14T02:26:25;17.02;;;13.52;;
21424;SDS011;10873;51.132;16.848;2022-11-14T02:28:51;14.20;;;12.70;;
21424;SDS011;10873;51.132;16.848;2022-11-14T02:31:17;16.95;;;13.60;;
21424;SDS011;10873;51.132;16.848;2022-11-14T02:33:43;16.25;;;13.13;;
21424;SDS011;10873;51.132;16.848;2022-11-14T02:36:10;17.77;;;13.77;;
21424;SDS011;10873;51.132;16.848;2022-11-14T02:38:36;18.52;;;14.27;;
21424;SDS011;10873;51.132;16.848;2022-11-14T02:41:02;16.23;;;13.45;;
21424;SDS011;10873;51.132;16.848;2022-11-14T02:43:29;17.80;;;14.38;;
21424;SDS011;10873;51.132;16.848;2022-11-14T02:45:55;16.83;;;13.88;;
21424;SDS011;10873;51.132;16.848;2022-11-14T02:48:21;17.73;;;14.15;;
21424;SDS011;10873;51.132;16.848;2022-11-14T02:50:47;18.98;;;14.70;;
21424;SDS011;10873;51.132;16.848;2022-11-14T02:53:14;17.75;;;14.63;;
21424;SDS011;10873;51.132;16.848;2022-11-14T02:55:41;18.30;;;14.30;;
21424;SDS011;10873;51.132;16.848;2022-11-14T02:58:06;18.83;;;14.95;;
21424;SDS011;10873;51.132;16.848;2022-11-14T03:00:33;19.45;;;14.95;;
21424;SDS011;10873;51.132;16.848;2022-11-14T03:02:59;17.83;;;14.02;;
21424;SDS011;10873;51.132;16.848;2022-11-14T03:05:25;19.42;;;15.45;;
21424;SDS011;10873;51.132;16.848;2022-11-14T03:07:51;20.67;;;15.88;;
21424;SDS011;10873;51.132;16.848;2022-11-14T03:10:19;19.65;;;15.02;;
21424;SDS011;10873;51.132;16.848;2022-11-14T03:12:46;21.70;;;16.05;;
21424;SDS011;10873;51.132;16.848;2022-11-14T03:15:11;20.45;;;16.15;;
21424;SDS011;10873;51.132;16.848;2022-11-14T03:17:37;21.83;;;17.00;;
21424;SDS011;10873;51.132;16.848;2022-11-14T03:20:04;21.27;;;16.08;;
21424;SDS011;10873;51.132;16.848;2022-11-14T03:22:31;21.55;;;16.23;;
21424;SDS011;10873;51.132;16.848;2022-11-14T03:24:57;19.35;;;15.15;;
21424;SDS011;10873;51.132;16.848;2022-11-14T03:27:24;20.27;;;16.48;;
21424;SDS011;10873;51.132;16.848;2022-11-14T03:29:50;18.83;;;15.30;;
21424;SDS011;10873;51.132;16.848;2022-11-14T03:32:16;19.35;;;15.77;;
21424;SDS011;10873;51.132;16.848;2022-11-14T03:34:42;21.23;;;16.33;;
21424;SDS011;10873;51.132;16.848;2022-11-14T03:37:08;21.08;;;16.10;;
21424;SDS011;10873;51.132;16.848;2022-11-14T03:39:35;20.85;;;16.00;;
21424;SDS011;10873;51.132;16.848;2022-11-14T03:42:01;20.77;;;16.60;;
21424;SDS011;10873;51.132;16.848;2022-11-14T03:44:28;20.70;;;15.80;;
21424;SDS011;10873;51.132;16.848;2022-11-14T03:46:54;21.80;;;16.55;;
21424;SDS011;10873;51.132;16.848;2022-11-14T03:49:20;22.08;;;16.30;;
21424;SDS011;10873;51.132;16.848;2022-11-14T03:51:46;20.23;;;15.93;;
21424;SDS011;10873;51.132;16.848;2022-11-14T03:54:13;20.88;;;16.80;;
21424;SDS011;10873;51.132;16.848;2022-11-14T03:56:39;20.50;;;16.00;;
21424;SDS011;10873;51.132;16.848;2022-11-14T03:59:05;22.88;;;16.77;;
21424;SDS011;10873;51.132;16.848;2022-11-14T04:01:32;22.80;;;17.00;;
21424;SDS011;10873;51.132;16.848;2022-11-14T04:03:58;30.48;;;16.95;;
21424;SDS011;10873;51.132;16.848;2022-11-14T04:06:24;47.90;;;17.95;;
21424;SDS011;10873;51.132;16.848;2022-11-14T04:08:50;35.35;;;17.35;;
21424;SDS011;10873;51.132;16.848;2022-11-14T04:11:16;30.48;;;17.50;;
21424;SDS011;10873;51.132;16.848;2022-11-14T04:13:43;24.50;;;16.40;;
21424;SDS011;10873;51.132;16.848;2022-11-14T04:16:09;24.02;;;16.48;;
21424;SDS011;10873;51.132;16.848;2022-11-14T04:18:36;23.17;;;16.95;;
21424;SDS011;10873;51.132;16.848;2022-11-14T04:21:02;23.75;;;17.23;;
21424;SDS011;10873;51.132;16.848;2022-11-14T04:23:28;20.77;;;16.33;;
21424;SDS011;10873;51.132;16.848;2022-11-14T04:25:54;26.30;;;17.58;;
21424;SDS011;10873;51.132;16.848;2022-11-14T04:28:20;24.15;;;17.08;;
21424;SDS011;10873;51.132;16.848;2022-11-14T04:30:47;24.80;;;16.88;;
21424;SDS011;10873;51.132;16.848;2022-11-14T04:33:12;31.00;;;16.85;;
21424;SDS011;10873;51.132;16.848;2022-11-14T04:35:40;32.67;;;16.73;;
21424;SDS011;10873;51.132;16.848;2022-11-14T04:38:06;23.25;;;16.50;;
21424;SDS011;10873;51.132;16.848;2022-11-14T04:40:32;26.27;;;16.30;;
21424;SDS011;10873;51.132;16.848;2022-11-14T04:42:58;22.58;;;16.20;;
21424;SDS011;10873;51.132;16.848;2022-11-14T04:45:24;22.75;;;16.08;;
21424;SDS011;10873;51.132;16.848;2022-11-14T04:47:50;22.67;;;15.82;;
21424;SDS011;10873;51.132;16.848;2022-11-14T04:50:17;22.08;;;15.45;;
21424;SDS011;10873;51.132;16.848;2022-11-14T04:52:44;24.00;;;15.73;;
21424;SDS011;10873;51.132;16.848;2022-11-14T04:55:10;22.35;;;15.68;;
21424;SDS011;10873;51.132;16.848;2022-11-14T04:57:36;22.65;;;15.70;;
21424;SDS011;10873;51.132;16.848;2022-11-14T05:00:02;21.65;;;15.35;;
21424;SDS011;10873;51.132;16.848;2022-11-14T05:02:30;20.98;;;15.27;;
21424;SDS011;10873;51.132;16.848;2022-11-14T05:04:57;23.30;;;15.95;;
21424;SDS011;10873;51.132;16.848;2022-11-14T05:07:23;22.73;;;15.63;;
21424;SDS011;10873;51.132;16.848;2022-11-14T05:09:50;20.98;;;15.63;;
21424;SDS011;10873;51.132;16.848;2022-11-14T05:12:16;21.08;;;15.23;;
21424;SDS011;10873;51.132;16.848;2022-11-14T05:14:42;22.02;;;15.20;;
21424;SDS011;10873;51.132;16.848;2022-11-14T05:17:08;20.35;;;15.90;;
21424;SDS011;10873;51.132;16.848;2022-11-14T05:19:34;20.58;;;15.20;;
21424;SDS011;10873;51.132;16.848;2022-11-14T05:22:00;20.55;;;15.25;;
21424;SDS011;10873;51.132;16.848;2022-11-14T05:24:26;19.70;;;15.20;;
21424;SDS011;10873;51.132;16.848;2022-11-14T05:26:54;21.60;;;15.30;;
21424;SDS011;10873;51.132;16.848;2022-11-14T05:29:20;21.67;;;15.35;;
21424;SDS011;10873;51.132;16.848;2022-11-14T05:31:46;21.65;;;15.45;;
21424;SDS011;10873;51.132;16.848;2022-11-14T05:34:13;20.83;;;15.00;;
21424;SDS011;10873;51.132;16.848;2022-11-14T05:36:42;20.55;;;15.00;;
21424;SDS011;10873;51.132;16.848;2022-11-14T05:57:50;18.17;;;14.82;;
21424;SDS011;10873;51.132;16.848;2022-11-14T06:00:16;21.50;;;15.70;;
21424;SDS011;10873;51.132;16.848;2022-11-14T06:02:42;30.42;;;15.55;;
21424;SDS011;10873;51.132;16.848;2022-11-14T06:05:10;20.88;;;15.85;;
21424;SDS011;10873;51.132;16.848;2022-11-14T06:07:36;22.05;;;16.80;;
21424;SDS011;10873;51.132;16.848;2022-11-14T06:10:03;24.35;;;16.55;;
21424;SDS011;10873;51.132;16.848;2022-11-14T06:12:30;20.23;;;15.10;;
21424;SDS011;10873;51.132;16.848;2022-11-14T06:14:57;22.10;;;16.98;;
21424;SDS011;10873;51.132;16.848;2022-11-14T06:17:23;24.48;;;16.33;;
21424;SDS011;10873;51.132;16.848;2022-11-14T06:19:50;22.13;;;16.08;;
21424;SDS011;10873;51.132;16.848;2022-11-14T06:22:15;23.90;;;16.00;;
21424;SDS011;10873;51.132;16.848;2022-11-14T06:24:42;23.45;;;16.45;;
21424;SDS011;10873;51.132;16.848;2022-11-14T06:27:07;24.35;;;16.88;;
21424;SDS011;10873;51.132;16.848;2022-11-14T06:29:34;22.70;;;16.92;;
21424;SDS011;10873;51.132;16.848;2022-11-14T06:32:01;24.55;;;16.45;;
21424;SDS011;10873;51.132;16.848;2022-11-14T06:34:27;21.70;;;16.02;;
21424;SDS011;10873;51.132;16.848;2022-11-14T06:36:53;23.17;;;16.35;;
21424;SDS011;10873;51.132;16.848;2022-11-14T06:39:19;23.33;;;16.52;;
21424;SDS011;10873;51.132;16.848;2022-11-14T06:41:45;21.40;;;15.80;;
21424;SDS011;10873;51.132;16.848;2022-11-14T06:44:11;22.15;;;15.73;;
21424;SDS011;10873;51.132;16.848;2022-11-14T06:46:39;22.73;;;16.30;;
21424;SDS011;10873;51.132;16.848;2022-11-14T06:49:06;22.15;;;16.13;;
21424;SDS011;10873;51.132;16.848;2022-11-14T06:51:32;21.05;;;15.63;;
21424;SDS011;10873;51.132;16.848;2022-11-14T06:53:58;22.27;;;15.98;;
21424;SDS011;10873;51.132;16.848;2022-11-14T06:56:24;23.17;;;17.13;;
21424;SDS011;10873;51.132;16.848;2022-11-14T06:58:50;22.65;;;16.67;;
21424;SDS011;10873;51.132;16.848;2022-11-14T07:01:18;23.95;;;17.30;;
21424;SDS011;10873;51.132;16.848;2022-11-14T07:03:45;22.55;;;16.88;;
21424;SDS011;10873;51.132;16.848;2022-11-14T07:06:14;21.15;;;16.45;;
21424;SDS011;10873;51.132;16.848;2022-11-14T07:08:42;24.20;;;16.48;;
21424;SDS011;10873;51.132;16.848;2022-11-14T07:11:09;24.77;;;16.92;;
21424;SDS011;10873;51.132;16.848;2022-11-14T07:13:37;23.85;;;17.05;;
21424;SDS011;10873;51.132;16.848;2022-11-14T07:16:05;21.92;;;16.08;;
21424;SDS011;10873;51.132;16.848;2022-11-14T07:18:32;20.88;;;15.98;;
21424;SDS011;10873;51.132;16.848;2022-11-14T07:20:59;23.65;;;16.45;;
21424;SDS011;10873;51.132;16.848;2022-11-14T07:23:28;21.95;;;16.33;;
21424;SDS011;10873;51.132;16.848;2022-11-14T07:25:54;22.58;;;16.35;;
21424;SDS011;10873;51.132;16.848;2022-11-14T07:28:24;22.42;;;16.20;;
21424;SDS011;10873;51.132;16.848;2022-11-14T07:30:50;20.63;;;15.57;;
21424;SDS011;10873;51.132;16.848;2022-11-14T07:33:16;22.40;;;16.50;;
21424;SDS011;10873;51.132;16.848;2022-11-14T07:35:42;22.15;;;16.02;;
21424;SDS011;10873;51.132;16.848;2022-11-14T07:38:08;23.63;;;16.35;;
21424;SDS011;10873;51.132;16.848;2022-11-14T07:40:35;22.38;;;17.17;;
21424;SDS011;10873;51.132;16.848;2022-11-14T07:43:02;21.65;;;15.68;;
21424;SDS011;10873;51.132;16.848;2022-11-14T07:45:28;21.85;;;16.35;;
21424;SDS011;10873;51.132;16.848;2022-11-14T07:47:55;25.20;;;15.52;;
21424;SDS011;10873;51.132;16.848;2022-11-14T07:50:21;22.58;;;16.08;;
21424;SDS011;10873;51.132;16.848;2022-11-14T07:52:48;23.02;;;15.95;;
21424;SDS011;10873;51.132;16.848;2022-11-14T07:55:15;24.25;;;16.48;;
21424;SDS011;10873;51.132;16.848;2022-11-14T07:57:42;21.77;;;16.38;;
21424;SDS011;10873;51.132;16.848;2022-11-14T08:00:09;23.08;;;16.85;;
21424;SDS011;10873;51.132;16.848;2022-11-14T08:02:36;26.67;;;18.00;;
21424;SDS011;10873;51.132;16.848;2022-11-14T08:05:02;32.95;;;17.17;;
21424;SDS011;10873;51.132;16.848;2022-11-14T08:07:29;35.35;;;17.27;;
21424;SDS011;10873;51.132;16.848;2022-11-14T08:09:55;81.28;;;20.17;;
21424;SDS011;10873;51.132;16.848;2022-11-14T08:12:21;59.95;;;20.58;;
21424;SDS011;10873;51.132;16.848;2022-11-14T08:14:48;67.07;;;21.48;;
21424;SDS011;10873;51.132;16.848;2022-11-14T08:17:14;43.85;;;19.58;;
21424;SDS011;10873;51.132;16.848;2022-11-14T08:19:40;45.85;;;20.15;;
21424;SDS011;10873;51.132;16.848;2022-11-14T08:22:06;40.58;;;20.85;;
21424;SDS011;10873;51.132;16.848;2022-11-14T08:24:32;37.28;;;20.27;;
21424;SDS011;10873;51.132;16.848;2022-11-14T08:26:58;38.78;;;19.92;;
21424;SDS011;10873;51.132;16.848;2022-11-14T08:29:24;32.28;;;20.20;;
21424;SDS011;10873;51.132;16.848;2022-11-14T08:31:52;36.60;;;19.77;;
21424;SDS011;10873;51.132;16.848;2022-11-14T08:34:18;32.60;;;20.02;;
21424;SDS011;10873;51.132;16.848;2022-11-14T08:36:45;29.73;;;19.20;;
21424;SDS011;10873;51.132;16.848;2022-11-14T08:39:11;29.23;;;20.02;;
21424;SDS011;10873;51.132;16.848;2022-11-14T08:41:36;28.98;;;19.42;;
21424;SDS011;10873;51.132;16.848;2022-11-14T08:44:03;32.22;;;19.80;;
21424;SDS011;10873;51.132;16.848;2022-11-14T08:46:29;31.63;;;19.80;;
21424;SDS011;10873;51.132;16.848;2022-11-14T08:48:57;32.72;;;20.35;;
21424;SDS011;10873;51.132;16.848;2022-11-14T08:51:22;28.55;;;19.42;;
21424;SDS011;10873;51.132;16.848;2022-11-14T08:53:49;29.98;;;19.67;;
21424;SDS011;10873;51.132;16.848;2022-11-14T08:56:16;32.38;;;19.80;;
21424;SDS011;10873;51.132;16.848;2022-11-14T08:58:42;31.02;;;19.63;;
21424;SDS011;10873;51.132;16.848;2022-11-14T09:01:11;30.95;;;19.73;;
21424;SDS011;10873;51.132;16.848;2022-11-14T09:03:37;31.15;;;20.90;;
21424;SDS011;10873;51.132;16.848;2022-11-14T09:06:05;30.35;;;19.85;;
21424;SDS011;10873;51.132;16.848;2022-11-14T09:08:31;29.83;;;20.67;;
21424;SDS011;10873;51.132;16.848;2022-11-14T09:10:59;32.20;;;21.00;;
21424;SDS011;10873;51.132;16.848;2022-11-14T09:13:25;28.88;;;20.65;;
21424;SDS011;10873;51.132;16.848;2022-11-14T09:15:52;31.20;;;20.60;;
21424;SDS011;10873;51.132;16.848;2022-11-14T09:18:17;30.08;;;20.95;;
21424;SDS011;10873;51.132;16.848;2022-11-14T09:20:44;32.28;;;20.80;;
21424;SDS011;10873;51.132;16.848;2022-11-14T09:23:11;32.22;;;21.45;;
21424;SDS011;10873;51.132;16.848;2022-11-14T09:25:38;33.22;;;21.02;;
21424;SDS011;10873;51.132;16.848;2022-11-14T09:28:04;33.63;;;21.60;;
21424;SDS011;10873;51.132;16.848;2022-11-14T09:30:31;31.95;;;21.08;;
21424;SDS011;10873;51.132;16.848;2022-11-14T09:32:58;35.45;;;21.85;;
21424;SDS011;10873;51.132;16.848;2022-11-14T09:35:25;33.63;;;21.70;;
21424;SDS011;10873;51.132;16.848;2022-11-14T09:37:57;34.72;;;21.95;;
21424;SDS011;10873;51.132;16.848;2022-11-14T09:40:25;32.88;;;20.15;;
21424;SDS011;10873;51.132;16.848;2022-11-14T09:42:55;33.50;;;20.98;;
21424;SDS011;10873;51.132;16.848;2022-11-14T09:45:30;31.48;;;20.92;;
21424;SDS011;10873;51.132;16.848;2022-11-14T09:48:00;34.00;;;21.25;;
21424;SDS011;10873;51.132;16.848;2022-11-14T09:50:32;33.90;;;21.58;;
21424;SDS011;10873;51.132;16.848;2022-11-14T09:53:02;29.23;;;20.25;;
21424;SDS011;10873;51.132;16.848;2022-11-14T09:55:32;33.25;;;22.10;;
21424;SDS011;10873;51.132;16.848;2022-11-14T09:58:00;35.20;;;21.52;;
21424;SDS011;10873;51.132;16.848;2022-11-14T10:00:28;38.08;;;21.65;;
21424;SDS011;10873;51.132;16.848;2022-11-14T10:03:02;35.70;;;22.90;;
21424;SDS011;10873;51.132;16.848;2022-11-14T10:05:42;41.50;;;22.77;;
21424;SDS011;10873;51.132;16.848;2022-11-14T10:08:23;43.78;;;23.65;;
21424;SDS011;10873;51.132;16.848;2022-11-14T10:11:00;38.72;;;22.95;;
21424;SDS011;10873;51.132;16.848;2022-11-14T10:13:48;37.72;;;21.13;;
21424;SDS011;10873;51.132;16.848;2022-11-14T10:16:33;50.55;;;23.48;;
21424;SDS011;10873;51.132;16.848;2022-11-14T10:19:08;49.97;;;22.67;;
21424;SDS011;10873;51.132;16.848;2022-11-14T10:21:45;42.80;;;21.75;;
21424;SDS011;10873;51.132;16.848;2022-11-14T10:24:21;39.95;;;20.70;;
21424;SDS011;10873;51.132;16.848;2022-11-14T10:27:01;43.40;;;22.80;;
21424;SDS011;10873;51.132;16.848;2022-11-14T10:29:40;47.42;;;22.48;;
21424;SDS011;10873;51.132;16.848;2022-11-14T10:32:21;333.38;;;50.13;;
21424;SDS011;10873;51.132;16.848;2022-11-14T10:35:00;235.82;;;40.08;;
21424;SDS011;10873;51.132;16.848;2022-11-14T10:37:30;140.00;;;32.60;;
21424;SDS011;10873;51.132;16.848;2022-11-14T10:40:02;144.48;;;31.83;;
21424;SDS011;10873;51.132;16.848;2022-11-14T10:42:42;193.98;;;39.40;;
21424;SDS011;10873;51.132;16.848;2022-11-14T10:45:15;158.02;;;34.33;;
21424;SDS011;10873;51.132;16.848;2022-11-14T10:47:45;135.23;;;32.33;;
21424;SDS011;10873;51.132;16.848;2022-11-14T10:50:15;126.78;;;33.17;;
21424;SDS011;10873;51.132;16.848;2022-11-14T10:52:44;104.93;;;30.70;;
21424;SDS011;10873;51.132;16.848;2022-11-14T10:55:12;106.60;;;29.70;;
21424;SDS011;10873;51.132;16.848;2022-11-14T10:57:41;95.25;;;27.45;;
21424;SDS011;10873;51.132;16.848;2022-11-14T11:00:10;88.63;;;27.48;;
21424;SDS011;10873;51.132;16.848;2022-11-14T11:02:47;78.40;;;26.13;;
21424;SDS011;10873;51.132;16.848;2022-11-14T11:05:16;60.83;;;25.25;;
21424;SDS011;10873;51.132;16.848;2022-11-14T11:07:43;52.50;;;25.23;;
21424;SDS011;10873;51.132;16.848;2022-11-14T11:10:34;64.50;;;26.02;;
21424;SDS011;10873;51.132;16.848;2022-11-14T11:13:33;54.67;;;25.02;;
21424;SDS011;10873;51.132;16.848;2022-11-14T11:16:01;44.63;;;22.55;;
21424;SDS011;10873;51.132;16.848;2022-11-14T11:18:29;53.22;;;21.52;;
21424;SDS011;10873;51.132;16.848;2022-11-14T11:21:00;51.83;;;21.98;;
21424;SDS011;10873;51.132;16.848;2022-11-14T11:23:28;61.63;;;22.25;;
21424;SDS011;10873;51.132;16.848;2022-11-14T11:25:57;37.90;;;19.92;;
21424;SDS011;10873;51.132;16.848;2022-11-14T11:28:25;37.63;;;20.65;;
21424;SDS011;10873;51.132;16.848;2022-11-14T11:30:57;43.83;;;20.23;;
21424;SDS011;10873;51.132;16.848;2022-11-14T11:33:25;41.35;;;21.17;;
21424;SDS011;10873;51.132;16.848;2022-11-14T11:35:55;25.98;;;16.17;;
21424;SDS011;10873;51.132;16.848;2022-11-14T11:38:22;24.63;;;15.68;;
21424;SDS011;10873;51.132;16.848;2022-11-14T11:40:53;43.15;;;17.65;;
21424;SDS011;10873;51.132;16.848;2022-11-14T11:43:26;28.50;;;15.05;;
21424;SDS011;10873;51.132;16.848;2022-11-14T11:46:02;27.25;;;15.57;;
21424;SDS011;10873;51.132;16.848;2022-11-14T11:48:33;22.83;;;13.23;;
21424;SDS011;10873;51.132;16.848;2022-11-14T11:51:03;24.27;;;13.32;;
21424;SDS011;10873;51.132;16.848;2022-11-14T11:53:30;20.33;;;12.85;;
21424;SDS011;10873;51.132;16.848;2022-11-14T11:56:05;24.88;;;13.63;;
21424;SDS011;10873;51.132;16.848;2022-11-14T11:58:35;16.40;;;11.65;;
21424;SDS011;10873;51.132;16.848;2022-11-14T12:01:08;16.95;;;11.85;;
21424;SDS011;10873;51.132;16.848;2022-11-14T12:03:35;21.33;;;12.30;;
21424;SDS011;10873;51.132;16.848;2022-11-14T12:06:02;19.30;;;12.77;;
21424;SDS011;10873;51.132;16.848;2022-11-14T12:08:39;15.80;;;11.55;;
21424;SDS011;10873;51.132;16.848;2022-11-14T12:11:17;17.50;;;11.68;;
21424;SDS011;10873;51.132;16.848;2022-11-14T12:13:58;18.38;;;11.30;;
21424;SDS011;10873;51.132;16.848;2022-11-14T12:19:58;20.63;;;12.23;;
21424;SDS011;10873;51.132;16.848;2022-11-14T12:22:42;22.25;;;12.45;;
21424;SDS011;10873;51.132;16.848;2022-11-14T12:28:42;15.70;;;12.13;;
21424;SDS011;10873;51.132;16.848;2022-11-14T12:31:30;14.55;;;11.43;;
21424;SDS011;10873;51.132;16.848;2022-11-14T12:33:59;14.05;;;10.57;;
21424;SDS011;10873;51.132;16.848;2022-11-14T12:36:30;16.58;;;12.00;;
21424;SDS011;10873;51.132;16.848;2022-11-14T12:38:58;16.70;;;10.93;;
21424;SDS011;10873;51.132;16.848;2022-11-14T12:41:26;15.35;;;11.50;;
21424;SDS011;10873;51.132;16.848;2022-11-14T12:49:38;15.00;;;10.93;;
21424;SDS011;10873;51.132;16.848;2022-11-14T12:52:43;17.45;;;10.70;;
21424;SDS011;10873;51.132;16.848;2022-11-14T12:58:16;14.68;;;10.52;;
21424;SDS011;10873;51.132;16.848;2022-11-14T13:00:59;15.23;;;10.13;;
21424;SDS011;10873;51.132;16.848;2022-11-14T13:03:40;16.90;;;10.55;;
21424;SDS011;10873;51.132;16.848;2022-11-14T13:06:21;14.10;;;10.65;;
21424;SDS011;10873;51.132;16.848;2022-11-14T13:08:55;13.60;;;10.38;;
21424;SDS011;10873;51.132;16.848;2022-11-14T13:11:42;14.98;;;10.88;;
21424;SDS011;10873;51.132;16.848;2022-11-14T13:14:27;15.02;;;10.77;;
21424;SDS011;10873;51.132;16.848;2022-11-14T13:17:23;14.55;;;10.98;;
21424;SDS011;10873;51.132;16.848;2022-11-14T13:20:25;12.90;;;10.32;;
21424;SDS011;10873;51.132;16.848;2022-11-14T13:26:34;15.77;;;11.25;;
21424;SDS011;10873;51.132;16.848;2022-11-14T13:35:19;14.82;;;11.18;;
21424;SDS011;10873;51.132;16.848;2022-11-14T13:37:54;14.13;;;10.98;;
21424;SDS011;10873;51.132;16.848;2022-11-14T13:40:32;18.50;;;11.30;;
21424;SDS011;10873;51.132;16.848;2022-11-14T13:43:03;13.63;;;10.98;;
21424;SDS011;10873;51.132;16.848;2022-11-14T13:45:39;14.98;;;10.60;;
21424;SDS011;10873;51.132;16.848;2022-11-14T13:51:14;17.40;;;11.18;;
21424;SDS011;10873;51.132;16.848;2022-11-14T13:53:41;14.75;;;10.93;;
21424;SDS011;10873;51.132;16.848;2022-11-14T13:56:13;17.00;;;10.82;;
21424;SDS011;10873;51.132;16.848;2022-11-14T13:58:55;13.85;;;10.98;;
21424;SDS011;10873;51.132;16.848;2022-11-14T14:01:48;13.18;;;10.25;;
21424;SDS011;10873;51.132;16.848;2022-11-14T14:04:31;13.90;;;10.35;;
21424;SDS011;10873;51.132;16.848;2022-11-14T14:07:10;15.65;;;10.68;;
21424;SDS011;10873;51.132;16.848;2022-11-14T14:09:43;13.20;;;10.48;;
21424;SDS011;10873;51.132;16.848;2022-11-14T14:12:32;17.05;;;11.20;;
21424;SDS011;10873;51.132;16.848;2022-11-14T14:15:18;13.63;;;10.30;;
21424;SDS011;10873;51.132;16.848;2022-11-14T14:17:53;14.45;;;11.30;;
21424;SDS011;10873;51.132;16.848;2022-11-14T14:20:30;14.15;;;10.90;;
21424;SDS011;10873;51.132;16.848;2022-11-14T14:23:05;14.07;;;10.48;;
21424;SDS011;10873;51.132;16.848;2022-11-14T14:25:44;17.77;;;10.20;;
21424;SDS011;10873;51.132;16.848;2022-11-14T14:28:21;14.45;;;10.75;;
21424;SDS011;10873;51.132;16.848;2022-11-14T14:31:02;13.90;;;10.00;;
21424;SDS011;10873;51.132;16.848;2022-11-14T14:33:39;15.20;;;10.57;;
21424;SDS011;10873;51.132;16.848;2022-11-14T14:36:14;15.95;;;10.90;;
21424;SDS011;10873;51.132;16.848;2022-11-14T14:38:42;16.48;;;11.50;;
21424;SDS011;10873;51.132;16.848;2022-11-14T14:41:08;16.60;;;11.90;;
21424;SDS011;10873;51.132;16.848;2022-11-14T14:43:37;18.60;;;12.70;;
21424;SDS011;10873;51.132;16.848;2022-11-14T14:46:06;16.42;;;12.77;;
21424;SDS011;10873;51.132;16.848;2022-11-14T14:48:33;16.30;;;12.23;;
21424;SDS011;10873;51.132;16.848;2022-11-14T14:51:03;17.23;;;12.27;;
21424;SDS011;10873;51.132;16.848;2022-11-14T14:53:32;18.70;;;12.38;;
21424;SDS011;10873;51.132;16.848;2022-11-14T14:56:00;16.73;;;11.63;;
21424;SDS011;10873;51.132;16.848;2022-11-14T14:58:28;16.27;;;12.23;;
21424;SDS011;10873;51.132;16.848;2022-11-14T15:00:57;16.15;;;11.93;;
21424;SDS011;10873;51.132;16.848;2022-11-14T15:03:26;17.00;;;12.07;;
21424;SDS011;10873;51.132;16.848;2022-11-14T15:05:57;17.58;;;12.20;;
21424;SDS011;10873;51.132;16.848;2022-11-14T15:08:24;19.40;;;11.77;;
21424;SDS011;10873;51.132;16.848;2022-11-14T15:10:50;20.98;;;11.60;;
21424;SDS011;10873;51.132;16.848;2022-11-14T15:13:20;19.30;;;11.10;;
21424;SDS011;10873;51.132;16.848;2022-11-14T15:15:47;19.92;;;11.02;;
21424;SDS011;10873;51.132;16.848;2022-11-14T15:18:17;18.15;;;12.20;;
21424;SDS011;10873;51.132;16.848;2022-11-14T15:23:33;17.70;;;12.63;;
21424;SDS011;10873;51.132;16.848;2022-11-14T15:26:00;17.70;;;11.32;;
21424;SDS011;10873;51.132;16.848;2022-11-14T15:28:27;17.38;;;11.48;;
21424;SDS011;10873;51.132;16.848;2022-11-14T15:30:55;18.20;;;12.55;;
21424;SDS011;10873;51.132;16.848;2022-11-14T15:33:26;19.98;;;12.32;;